createdAt,value
2019-04-20T00:01:01.615Z,75.95
2019-04-20T00:03:39.417Z,75.63
2019-04-20T00:06:03.536Z,76.24
2019-04-20T00:08:37.533Z,76.02
2019-04-20T00:11:11.683Z,77.10
2019-04-20T00:13:48.925Z,77.45
2019-04-20T00:16:08.308Z,77.01
2019-04-20T00:18:43.049Z,76.95
2019-04-20T00:21:17.931Z,76.85
2019-04-20T00:23:50.254Z,77.08
2019-04-20T00:27:01.939Z,76.58
2019-04-20T00:29:21.313Z,76.42
2019-04-20T00:31:45.506Z,76.49
2019-04-20T00:34:13.853Z,77.48
2019-04-20T00:36:37.031Z,77.37
2019-04-20T00:39:11.125Z,77.46
2019-04-20T00:41:46.449Z,76.98
2019-04-20T00:44:17.148Z,77.14
2019-04-20T00:46:56.816Z,77.96
2019-04-20T00:49:30.588Z,78.36
2019-04-20T00:52:13.504Z,77.99
2019-04-20T00:54:18.051Z,78.13
2019-04-20T00:56:47.938Z,78.37
2019-04-20T00:59:32.077Z,79.01
2019-04-20T01:02:10.621Z,78.88
2019-04-20T01:04:44.968Z,78.53
2019-04-20T01:07:06.205Z,78.77
2019-04-20T01:09:33.038Z,78.35
2019-04-20T01:12:11.717Z,78.60
2019-04-20T01:14:43.464Z,79.01
2019-04-20T01:17:11.685Z,79.01
2019-04-20T01:19:37.356Z,79.58
2019-04-20T01:22:15.389Z,79.62
2019-04-20T01:24:41.957Z,79.08
2019-04-20T01:27:24.836Z,79.37
2019-04-20T01:29:46.802Z,79.63
2019-04-20T01:32:23.374Z,80.06
2019-04-20T01:34:56.780Z,80.87
2019-04-20T01:37:29.318Z,80.73
2019-04-20T01:39:52.105Z,81.49
2019-04-20T01:42:19.460Z,81.70
2019-04-20T01:44:52.417Z,81.82
2019-04-20T01:47:23.893Z,81.95
2019-04-20T01:50:04.758Z,82.44
2019-04-20T01:52:43.803Z,82.84
2019-04-20T01:55:24.788Z,82.52
2019-04-20T01:57:58.331Z,83.07
2019-04-20T02:00:23.327Z,83.07
2019-04-20T02:02:57.055Z,83.35
2019-04-20T02:05:29.080Z,83.04
2019-04-20T02:07:55.471Z,83.40
2019-04-20T02:10:33.335Z,83.18
2019-04-20T02:13:01.050Z,83.16
2019-04-20T02:15:37.532Z,83.78
2019-04-20T02:18:13.911Z,83.77
2019-04-20T02:20:48.594Z,84.35
2019-04-20T02:23:16.431Z,85.09
2019-04-20T02:25:35.386Z,85.65
2019-04-20T02:28:22.956Z,85.80
2019-04-20T02:31:14.835Z,85.32
2019-04-20T02:33:52.563Z,84.86
2019-04-20T02:36:27.591Z,85.24
2019-04-20T02:39:24.673Z,86.36
2019-04-20T02:41:36.042Z,86.87
2019-04-20T02:44:14.703Z,87.17
2019-04-20T02:46:40.894Z,87.07
2019-04-20T02:49:34.105Z,86.96
2019-04-20T02:51:41.175Z,86.75
2019-04-20T02:54:16.559Z,86.02
2019-04-20T02:56:49.756Z,85.52
2019-04-20T02:59:42.291Z,84.43
2019-04-20T03:01:30.738Z,83.66
2019-04-20T03:03:52.194Z,83.24
2019-04-20T03:06:30.195Z,83.37
2019-04-20T03:09:09.111Z,83.35
2019-04-20T03:11:52.949Z,83.12
2019-04-20T03:14:09.225Z,83.12
2019-04-20T03:16:41.236Z,83.08
2019-04-20T03:19:11.741Z,83.32
2019-04-20T03:21:52.872Z,82.49
2019-04-20T03:24:26.733Z,82.59
2019-04-20T03:26:55.645Z,82.48
2019-04-20T03:29:51.082Z,82.16
2019-04-20T03:32:57.903Z,82.63
2019-04-20T03:37:28.146Z,84.14
2019-04-20T03:39:48.819Z,84.09
2019-04-20T03:42:06.996Z,84.30
2019-04-20T03:44:39.024Z,85.04
2019-04-20T03:47:11.499Z,84.21
2019-04-20T03:50:00.245Z,83.74
2019-04-20T03:52:32.781Z,83.71
2019-04-20T03:55:19.860Z,82.98
2019-04-20T03:58:14.042Z,82.24
2019-04-20T04:00:59.815Z,82.94
2019-04-20T04:03:41.049Z,83.06
2019-04-20T04:06:02.896Z,82.98
2019-04-20T04:08:28.884Z,83.21
2019-04-20T04:11:12.319Z,83.10
2019-04-20T04:13:24.950Z,82.90
2019-04-20T04:16:01.194Z,82.67
2019-04-20T04:18:34.912Z,82.46
2019-04-20T04:21:04.800Z,82.19
2019-04-20T04:23:44.778Z,81.67
2019-04-20T04:26:16.070Z,81.90
2019-04-20T04:28:50.254Z,82.42
2019-04-20T04:31:23.307Z,82.54
2019-04-20T04:36:20.800Z,81.72
2019-04-20T04:39:17.778Z,82.18
2019-04-20T04:41:41.694Z,81.71
2019-04-20T04:43:58.848Z,81.27
2019-04-20T04:46:14.489Z,81.25
2019-04-20T04:48:47.535Z,81.07
2019-04-20T04:51:23.943Z,80.96
2019-04-20T04:53:56.230Z,80.55
2019-04-20T04:56:23.139Z,80.23
2019-04-20T04:58:51.649Z,80.50
2019-04-20T05:01:26.038Z,80.04
2019-04-20T05:04:23.053Z,79.30
2019-04-20T05:06:37.462Z,79.76
2019-04-20T05:09:00.821Z,79.98
2019-04-20T05:11:29.785Z,80.34
2019-04-20T05:14:05.213Z,80.11
2019-04-20T05:16:54.548Z,79.58
2019-04-20T05:19:24.755Z,79.08
2019-04-20T05:22:01.281Z,78.29
2019-04-20T05:24:26.946Z,78.25
2019-04-20T05:27:08.982Z,77.82
2019-04-20T05:29:24.676Z,76.33
2019-04-20T05:31:55.850Z,76.24
2019-04-20T05:34:45.122Z,75.82
2019-04-20T05:37:23.643Z,75.79
2019-04-20T05:39:45.778Z,75.30
2019-04-20T05:42:19.160Z,73.43
2019-04-20T05:44:50.037Z,73.03
2019-04-20T05:47:16.951Z,72.29
2019-04-20T05:49:46.852Z,71.18
2019-04-20T05:52:38.667Z,69.46
2019-04-20T05:54:57.322Z,68.39
2019-04-20T05:57:30.307Z,66.87
2019-04-20T06:00:01.837Z,65.44
2019-04-20T06:02:30.575Z,66.46
2019-04-20T06:05:05.391Z,64.18
2019-04-20T06:07:29.657Z,63.07
2019-04-20T06:10:06.223Z,61.34
2019-04-20T06:12:35.798Z,59.37
2019-04-20T06:15:04.593Z,59.16
2019-04-20T06:17:52.722Z,52.63
2019-04-20T06:20:36.718Z,46.90
2019-04-20T06:23:12.227Z,42.96
2019-04-20T06:25:53.807Z,39.82
2019-04-20T06:28:12.719Z,41.19
2019-04-20T06:30:43.361Z,38.82
2019-04-20T06:34:07.553Z,38.17
2019-04-20T06:36:35.371Z,37.01
2019-04-20T06:39:13.778Z,36.71
2019-04-20T06:41:45.586Z,38.46
2019-04-20T06:44:08.805Z,37.76
2019-04-20T06:46:36.241Z,38.97
2019-04-20T06:49:10.688Z,37.23
2019-04-20T06:51:45.455Z,37.10
2019-04-20T06:54:09.502Z,37.09
2019-04-20T06:56:54.450Z,38.12
2019-04-20T06:59:27.560Z,37.63
2019-04-20T07:07:02.312Z,42.08
2019-04-20T07:09:39.904Z,43.99
2019-04-20T07:12:01.373Z,44.33
2019-04-20T07:14:25.903Z,45.22
2019-04-20T07:17:17.954Z,44.80
2019-04-20T07:19:39.864Z,45.61
2019-04-20T07:22:29.242Z,44.96
2019-04-20T07:24:55.106Z,45.21
2019-04-20T07:27:19.335Z,45.87
2019-04-20T07:29:57.463Z,46.65
2019-04-20T07:32:21.098Z,45.57
2019-04-20T07:34:57.313Z,45.54
2019-04-20T07:38:04.610Z,44.62
2019-04-20T07:40:07.764Z,43.51
2019-04-20T07:42:43.682Z,45.10
2019-04-20T07:45:18.138Z,44.96
2019-04-20T07:50:09.022Z,43.66
2019-04-20T07:52:39.633Z,43.60
2019-04-20T07:55:33.650Z,43.10
2019-04-20T07:57:45.743Z,42.71
2019-04-20T08:00:26.296Z,42.09
2019-04-20T08:03:18.580Z,43.52
2019-04-20T08:05:36.352Z,42.26
2019-04-20T08:08:18.132Z,42.49
2019-04-20T08:10:42.108Z,43.41
2019-04-20T08:13:25.731Z,42.12
2019-04-20T08:15:57.025Z,42.76
2019-04-20T08:18:27.701Z,40.49
2019-04-20T08:20:58.433Z,41.86
2019-04-20T08:23:31.703Z,41.78
2019-04-20T08:25:49.876Z,43.09
2019-04-20T08:28:20.854Z,42.31
2019-04-20T08:31:06.077Z,42.89
2019-04-20T08:33:55.249Z,42.19
2019-04-20T08:36:23.160Z,41.49
2019-04-20T08:39:18.517Z,42.79
2019-04-20T08:41:17.025Z,42.78
2019-04-20T08:44:21.664Z,41.91
2019-04-20T08:46:26.585Z,41.35
2019-04-20T08:48:58.173Z,40.43
2019-04-20T08:51:31.724Z,40.56
2019-04-20T08:53:56.990Z,40.87
2019-04-20T08:56:28.586Z,42.62
2019-04-20T08:58:43.531Z,40.93
2019-04-20T09:01:18.502Z,41.59
2019-04-20T09:03:56.538Z,43.27
2019-04-20T09:06:34.774Z,42.45
2019-04-20T09:09:03.404Z,40.28
2019-04-20T09:11:41.523Z,40.97
2019-04-20T09:13:55.771Z,42.47
2019-04-20T09:16:31.735Z,40.91
2019-04-20T09:18:59.828Z,39.77
2019-04-20T09:21:35.527Z,39.63
2019-04-20T09:24:24.366Z,39.85
2019-04-20T09:26:47.925Z,40.20
2019-04-20T09:29:11.815Z,38.53
2019-04-20T09:31:46.997Z,39.35
2019-04-20T09:34:24.793Z,37.26
2019-04-20T09:37:16.545Z,38.21
2019-04-20T09:39:52.411Z,37.59
2019-04-20T09:42:05.239Z,38.05
2019-04-20T09:44:41.036Z,36.54
2019-04-20T09:47:08.616Z,36.67
2019-04-20T09:49:49.362Z,36.65
2019-04-20T09:52:26.157Z,36.00
2019-04-20T09:54:59.285Z,34.35
2019-04-20T09:57:35.041Z,34.77
2019-04-20T10:00:04.370Z,35.90
2019-04-20T10:02:23.333Z,36.13
2019-04-20T10:04:47.523Z,33.70
2019-04-20T10:07:21.394Z,35.40
2019-04-20T10:09:50.197Z,35.11
2019-04-20T10:12:21.724Z,35.44
2019-04-20T10:14:53.205Z,35.23
2019-04-20T10:17:23.606Z,36.05
2019-04-20T10:19:53.737Z,34.94
2019-04-20T10:22:24.595Z,35.29
2019-04-20T10:24:55.539Z,35.81
2019-04-20T10:27:26.485Z,35.89
2019-04-20T10:29:57.533Z,34.98
2019-04-20T10:32:34.221Z,34.78
2019-04-20T10:34:59.397Z,35.10
2019-04-20T10:37:31.538Z,34.94
2019-04-20T10:40:02.899Z,34.72
2019-04-20T10:42:34.191Z,34.69
2019-04-20T10:45:06.445Z,34.00
2019-04-20T10:47:37.094Z,34.35
2019-04-20T10:50:09.112Z,34.60
2019-04-20T10:52:38.968Z,34.99
2019-04-20T10:55:10.257Z,34.98
2019-04-20T10:57:41.655Z,34.36
2019-04-20T11:00:13.576Z,34.82
2019-04-20T11:02:45.849Z,34.50
2019-04-20T11:05:15.119Z,33.98
2019-04-20T11:07:46.269Z,34.02
2019-04-20T11:10:23.688Z,34.53
2019-04-20T11:12:48.394Z,33.61
2019-04-20T11:15:18.672Z,33.65
2019-04-20T11:17:49.115Z,33.78
2019-04-20T11:20:19.251Z,33.39
2019-04-20T11:22:58.029Z,32.43
2019-04-20T11:25:26.536Z,33.52
2019-04-20T11:27:58.678Z,32.48
2019-04-20T11:30:30.049Z,32.36
2019-04-20T11:33:02.229Z,32.85
2019-04-20T11:35:39.242Z,33.28
2019-04-20T11:38:10.724Z,33.36
2019-04-20T11:40:41.184Z,33.20
2019-04-20T11:43:15.618Z,31.96
2019-04-20T11:45:46.752Z,33.01
2019-04-20T11:48:16.984Z,31.97
2019-04-20T11:50:51.639Z,32.87
2019-04-20T11:53:21.624Z,32.02
2019-04-20T11:55:52.094Z,33.18
2019-04-20T11:58:22.196Z,33.46
2019-04-20T12:01:06.266Z,32.28
2019-04-20T12:03:39.016Z,33.55
2019-04-20T12:06:04.682Z,34.20
2019-04-20T12:08:32.669Z,35.28
2019-04-20T12:11:20.257Z,34.38
2019-04-20T12:13:36.568Z,35.18
2019-04-20T12:16:07.736Z,34.22
2019-04-20T12:18:37.982Z,33.35
2019-04-20T12:21:08.552Z,34.36
2019-04-20T12:23:38.632Z,35.09
2019-04-20T12:26:08.907Z,34.82
2019-04-20T12:28:40.075Z,34.49
2019-04-20T12:31:14.748Z,35.19
2019-04-20T12:33:42.248Z,35.31
2019-04-20T12:36:12.742Z,33.54
2019-04-20T12:38:43.314Z,34.43
2019-04-20T12:41:32.019Z,35.06
2019-04-20T12:43:50.209Z,34.89
2019-04-20T12:46:31.827Z,33.82
2019-04-20T12:49:07.633Z,33.93
2019-04-20T12:51:47.539Z,32.29
2019-04-20T12:54:09.013Z,34.30
2019-04-20T12:56:38.712Z,34.78
2019-04-20T12:59:09.648Z,33.12
2019-04-20T13:01:39.648Z,32.91
2019-04-20T13:04:09.676Z,33.78
2019-04-20T13:06:40.882Z,29.96
2019-04-20T13:09:12.766Z,31.75
2019-04-20T13:12:08.062Z,32.26
2019-04-20T13:14:44.472Z,30.61
2019-04-20T13:17:14.558Z,29.93
2019-04-20T13:19:45.047Z,31.59
2019-04-20T13:22:14.923Z,30.30
2019-04-20T13:24:45.210Z,29.16
2019-04-20T13:27:16.476Z,30.47
2019-04-20T13:29:49.161Z,30.16
2019-04-20T13:32:18.140Z,30.15
2019-04-20T13:34:47.948Z,31.10
2019-04-20T13:37:18.043Z,26.98
2019-04-20T13:39:49.000Z,28.13
2019-04-20T13:42:23.294Z,29.08
2019-04-20T13:44:50.796Z,27.94
2019-04-20T13:47:20.952Z,29.80
2019-04-20T13:49:51.374Z,27.68
2019-04-20T13:52:22.690Z,28.54
2019-04-20T13:54:53.918Z,28.64
2019-04-20T13:57:31.655Z,26.71
2019-04-20T14:00:04.207Z,27.19
2019-04-20T14:02:35.769Z,27.56
2019-04-20T14:05:06.811Z,27.59
2019-04-20T14:07:37.551Z,25.91
2019-04-20T14:10:09.214Z,25.68
2019-04-20T14:12:50.597Z,25.26
2019-04-20T14:15:11.508Z,26.73
2019-04-20T14:17:41.467Z,25.72
2019-04-20T14:20:15.290Z,25.20
2019-04-20T14:22:43.277Z,23.72
2019-04-20T14:25:13.288Z,23.71
2019-04-20T14:27:43.061Z,26.02
2019-04-20T14:30:13.112Z,24.77
2019-04-20T14:32:43.044Z,25.83
2019-04-20T14:35:12.947Z,22.97
2019-04-20T14:37:43.820Z,21.37
2019-04-20T14:40:14.565Z,23.32
2019-04-20T14:42:48.572Z,23.38
2019-04-20T14:45:18.575Z,22.35
2019-04-20T14:47:49.860Z,23.09
2019-04-20T14:50:21.443Z,23.94
2019-04-20T14:52:51.536Z,23.70
2019-04-20T14:55:22.623Z,22.22
2019-04-20T14:57:53.372Z,22.74
2019-04-20T15:00:58.548Z,21.44
2019-04-20T15:03:38.445Z,21.96
2019-04-20T15:06:09.685Z,22.25
2019-04-20T15:08:40.783Z,22.91
2019-04-20T15:11:10.616Z,22.84
2019-04-20T15:13:40.728Z,24.62
2019-04-20T15:16:10.956Z,24.62
2019-04-20T15:18:53.000Z,24.82
2019-04-20T15:21:24.698Z,25.64
2019-04-20T15:23:55.408Z,24.32
2019-04-20T15:26:26.488Z,24.54
2019-04-20T15:28:56.652Z,24.57
2019-04-20T15:31:28.086Z,24.95
2019-04-20T15:33:59.110Z,25.28
2019-04-20T15:36:29.329Z,25.13
2019-04-20T15:38:59.092Z,24.33
2019-04-20T15:41:29.388Z,25.42
2019-04-20T15:43:59.549Z,25.13
2019-04-20T15:46:32.666Z,25.10
2019-04-20T15:49:02.059Z,26.34
2019-04-20T15:51:32.046Z,26.47
2019-04-20T15:54:01.984Z,26.37
2019-04-20T15:56:33.202Z,26.30
2019-04-20T15:59:04.378Z,26.81
2019-04-20T16:01:36.568Z,27.78
2019-04-20T16:04:13.903Z,27.91
2019-04-20T16:06:39.539Z,28.40
2019-04-20T16:09:10.427Z,28.02
2019-04-20T16:11:41.253Z,27.47
2019-04-20T16:14:11.253Z,28.10
2019-04-20T16:16:42.377Z,27.00
2019-04-20T16:19:26.847Z,26.61
2019-04-20T16:21:43.882Z,26.87
2019-04-20T16:24:15.050Z,27.77
2019-04-20T16:26:47.429Z,28.03
2019-04-20T16:29:17.726Z,27.90
2019-04-20T16:31:49.918Z,28.02
2019-04-20T16:34:19.301Z,27.46
2019-04-20T16:36:51.822Z,28.47
2019-04-20T16:39:20.592Z,27.09
2019-04-20T16:41:50.784Z,28.16
2019-04-20T16:44:21.111Z,28.12
2019-04-20T16:46:52.148Z,29.52
2019-04-20T16:49:23.282Z,30.76
2019-04-20T16:51:54.714Z,29.86
2019-04-20T16:54:25.909Z,30.35
2019-04-20T16:56:56.911Z,31.77
2019-04-20T16:59:28.132Z,32.30
2019-04-20T17:01:58.327Z,32.89
2019-04-20T17:04:30.050Z,32.53
2019-04-20T17:07:16.663Z,32.56
2019-04-20T17:09:49.599Z,31.76
2019-04-20T17:12:19.874Z,31.13
2019-04-20T17:14:53.694Z,32.24
2019-04-20T17:17:23.578Z,31.92
2019-04-20T17:19:53.620Z,32.05
2019-04-20T17:22:23.541Z,32.98
2019-04-20T17:24:53.800Z,33.42
2019-04-20T17:27:28.917Z,33.57
2019-04-20T17:30:10.514Z,33.63
2019-04-20T17:32:41.255Z,33.87
2019-04-20T17:35:23.242Z,34.94
2019-04-20T17:37:45.330Z,34.98
2019-04-20T17:40:35.178Z,34.71
2019-04-20T17:42:56.650Z,34.97
2019-04-20T17:45:28.244Z,35.41
2019-04-20T17:48:07.353Z,35.31
2019-04-20T17:50:41.464Z,35.50
2019-04-20T17:53:07.471Z,35.94
2019-04-20T17:55:40.679Z,36.17
2019-04-20T17:58:06.836Z,36.50
2019-04-20T18:00:56.693Z,37.34
2019-04-20T18:03:57.553Z,37.72
2019-04-20T18:06:17.335Z,37.88
2019-04-20T18:08:50.608Z,38.70
2019-04-20T18:11:07.778Z,38.80
2019-04-20T18:13:36.024Z,39.85
2019-04-20T18:16:31.263Z,40.43
2019-04-20T18:19:01.933Z,40.99
2019-04-20T18:21:56.363Z,41.50
2019-04-20T18:24:59.663Z,41.51
2019-04-20T18:27:28.997Z,42.18
2019-04-20T18:29:58.735Z,42.04
2019-04-20T18:32:37.908Z,41.58
2019-04-20T18:35:22.398Z,41.82
2019-04-20T18:38:00.808Z,42.38
2019-04-20T18:40:35.155Z,43.07
2019-04-20T18:43:05.259Z,43.42
2019-04-20T18:45:46.784Z,43.54
2019-04-20T18:48:19.655Z,43.46
2019-04-20T18:50:40.370Z,45.33
2019-04-20T18:53:14.648Z,46.17
2019-04-20T18:55:43.734Z,46.83
2019-04-20T18:58:09.499Z,47.75
2019-04-20T19:00:44.470Z,48.54
2019-04-20T19:03:18.234Z,49.04
2019-04-20T19:05:42.493Z,49.10
2019-04-20T19:08:15.347Z,49.97
2019-04-20T19:10:52.263Z,51.18
2019-04-20T19:13:28.729Z,52.10
2019-04-20T19:16:22.771Z,53.09
2019-04-20T19:19:00.807Z,52.92
2019-04-20T19:21:21.377Z,52.40
2019-04-20T19:24:01.462Z,52.60
2019-04-20T19:26:23.868Z,53.31
2019-04-20T19:28:57.865Z,54.00
2019-04-20T19:31:42.535Z,55.17
2019-04-20T19:34:15.355Z,56.02
2019-04-20T19:36:36.952Z,56.00
2019-04-20T19:39:19.941Z,56.53
2019-04-20T19:41:43.942Z,56.75
2019-04-20T19:44:17.174Z,57.07
2019-04-20T19:46:53.597Z,56.97
2019-04-20T19:49:19.281Z,57.32
2019-04-20T19:52:12.199Z,57.18
2019-04-20T19:54:30.138Z,57.47
2019-04-20T19:57:00.494Z,57.75
2019-04-20T19:59:23.360Z,57.84
2019-04-20T20:01:45.432Z,57.72
2019-04-20T20:04:15.688Z,57.37
2019-04-20T20:06:51.831Z,57.89
2019-04-20T20:09:18.204Z,57.87
2019-04-20T20:11:49.934Z,58.77
2019-04-20T20:14:30.592Z,59.71
2019-04-20T20:17:12.926Z,59.02
2019-04-20T20:19:38.086Z,58.24
2019-04-20T20:22:09.042Z,58.46
2019-04-20T20:24:27.395Z,58.64
2019-04-20T20:27:02.560Z,58.94
2019-04-20T20:29:37.559Z,60.02
2019-04-20T20:32:10.154Z,59.67
2019-04-20T20:34:38.268Z,60.39
2019-04-20T20:37:09.009Z,60.69
2019-04-20T20:39:38.656Z,61.13
2019-04-20T20:42:19.003Z,60.69
2019-04-20T20:44:45.537Z,61.11
2019-04-20T20:47:32.267Z,60.34
2019-04-20T20:50:08.775Z,60.49
2019-04-20T20:52:29.032Z,61.27
2019-04-20T20:54:53.933Z,61.37
2019-04-20T20:57:21.915Z,61.31
2019-04-20T20:59:55.277Z,61.50
2019-04-20T21:02:24.328Z,61.08
2019-04-20T21:04:51.323Z,61.72
2019-04-20T21:07:22.575Z,62.28
2019-04-20T21:09:52.515Z,63.08
2019-04-20T21:12:23.571Z,63.63
2019-04-20T21:14:55.089Z,63.07
2019-04-20T21:17:34.462Z,62.73
2019-04-20T21:20:12.637Z,62.67
2019-04-20T21:22:51.715Z,63.37
2019-04-20T21:25:14.498Z,64.12
2019-04-20T21:27:44.718Z,63.78
2019-04-20T21:30:18.485Z,63.58
2019-04-20T21:32:49.114Z,64.19
2019-04-20T21:35:17.862Z,64.39
2019-04-20T21:37:54.449Z,64.16
2019-04-20T21:40:27.886Z,64.63
2019-04-20T21:42:58.156Z,64.51
2019-04-20T21:45:28.687Z,64.62
2019-04-20T21:47:54.598Z,64.44
2019-04-20T21:50:42.714Z,65.17
2019-04-20T21:53:04.776Z,65.90
2019-04-20T21:55:28.000Z,66.03
2019-04-20T21:58:00.474Z,65.08
2019-04-20T22:00:50.461Z,64.95
2019-04-20T22:03:20.309Z,66.35
2019-04-20T22:05:54.427Z,66.43
2019-04-20T22:08:24.592Z,66.17
2019-04-20T22:10:55.827Z,66.58
2019-04-20T22:13:32.589Z,66.19
2019-04-20T22:16:03.558Z,66.32
2019-04-20T22:18:45.495Z,66.54
2019-04-20T22:21:13.268Z,66.94
2019-04-20T22:23:52.786Z,66.58
2019-04-20T22:26:17.388Z,67.05
2019-04-20T22:28:38.260Z,67.73
2019-04-20T22:31:09.715Z,68.14
2019-04-20T22:33:44.959Z,67.89
2019-04-20T22:36:16.366Z,67.21
2019-04-20T22:38:56.673Z,67.77
2019-04-20T22:41:27.707Z,67.56
2019-04-20T22:43:56.791Z,67.28
2019-04-20T22:46:31.828Z,67.85
2019-04-20T22:49:17.165Z,67.57
2019-04-20T22:51:44.034Z,67.62
2019-04-20T22:54:17.331Z,67.08
2019-04-20T22:56:48.298Z,68.42
2019-04-20T22:59:12.783Z,69.27
2019-04-20T23:01:44.410Z,69.42
2019-04-20T23:04:08.629Z,68.89
2019-04-20T23:06:43.976Z,68.60
2019-04-20T23:09:13.289Z,68.39
2019-04-20T23:11:42.394Z,68.47
2019-04-20T23:14:12.200Z,68.53
2019-04-20T23:16:47.381Z,68.41
2019-04-20T23:19:14.212Z,69.28
2019-04-20T23:21:50.245Z,70.18
2019-04-20T23:24:17.087Z,69.22
2019-04-20T23:26:48.636Z,70.05
2019-04-20T23:29:22.670Z,70.97
2019-04-20T23:31:55.748Z,71.14
2019-04-20T23:34:25.518Z,71.13
2019-04-20T23:36:54.661Z,70.56
2019-04-20T23:39:34.167Z,71.13
2019-04-20T23:42:00.372Z,70.49
2019-04-20T23:44:45.771Z,69.71
2019-04-20T23:47:22.009Z,70.72
2019-04-20T23:50:11.225Z,71.21
2019-04-20T23:53:02.470Z,71.29
2019-04-20T23:55:13.450Z,71.56
2019-04-20T23:57:45.997Z,71.83
